sensor_id;sensor_type;location;lat;lon;timestamp;temperature;humidity
5419;DHT22;2732;52.092;11.556;2023-05-09T00:03:42;11.10;70.10
5419;DHT22;2732;52.092;11.556;2023-05-09T00:08:42;11.00;70.30
5419;DHT22;2732;52.092;11.556;2023-05-09T00:13:43;11.00;70.30
5419;DHT22;2732;52.092;11.556;2023-05-09T00:18:44;10.90;71.00
5419;DHT22;2732;52.092;11.556;2023-05-09T00:23:45;10.90;71.20
5419;DHT22;2732;52.092;11.556;2023-05-09T00:28:46;10.80;71.70
5419;DHT22;2732;52.092;11.556;2023-05-09T00:33:47;10.70;72.00
5419;DHT22;2732;52.092;11.556;2023-05-09T00:38:48;10.60;72.30
5419;DHT22;2732;52.092;11.556;2023-05-09T00:43:48;10.60;72.50
5419;DHT22;2732;52.092;11.556;2023-05-09T00:48:49;10.50;73.00
5419;DHT22;2732;52.092;11.556;2023-05-09T00:53:51;10.50;73.50
5419;DHT22;2732;52.092;11.556;2023-05-09T00:58:52;10.40;73.70
5419;DHT22;2732;52.092;11.556;2023-05-09T01:03:54;10.40;74.30
5419;DHT22;2732;52.092;11.556;2023-05-09T01:09:01;10.30;74.60
5419;DHT22;2732;52.092;11.556;2023-05-09T01:14:11;10.20;75.20
5419;DHT22;2732;52.092;11.556;2023-05-09T01:30:24;10.00;76.60
5419;DHT22;2732;52.092;11.556;2023-05-09T01:35:25;10.00;77.20
5419;DHT22;2732;52.092;11.556;2023-05-09T01:40:30;9.90;78.70
5419;DHT22;2732;52.092;11.556;2023-05-09T01:45:33;9.80;79.10
5419;DHT22;2732;52.092;11.556;2023-05-09T01:50:36;9.80;79.60
5419;DHT22;2732;52.092;11.556;2023-05-09T01:55:39;9.70;79.70
5419;DHT22;2732;52.092;11.556;2023-05-09T02:00:41;9.70;80.30
5419;DHT22;2732;52.092;11.556;2023-05-09T02:05:43;9.60;81.30
5419;DHT22;2732;52.092;11.556;2023-05-09T02:10:46;9.60;81.60
5419;DHT22;2732;52.092;11.556;2023-05-09T02:15:48;9.50;82.60
5419;DHT22;2732;52.092;11.556;2023-05-09T02:20:49;9.40;82.10
5419;DHT22;2732;52.092;11.556;2023-05-09T02:25:50;9.40;82.80
5419;DHT22;2732;52.092;11.556;2023-05-09T02:30:54;9.30;83.00
5419;DHT22;2732;52.092;11.556;2023-05-09T02:35:58;9.30;84.00
5419;DHT22;2732;52.092;11.556;2023-05-09T02:40:59;9.20;84.50
5419;DHT22;2732;52.092;11.556;2023-05-09T02:45:59;9.20;85.20
5419;DHT22;2732;52.092;11.556;2023-05-09T02:51:00;9.10;85.90
5419;DHT22;2732;52.092;11.556;2023-05-09T02:56:01;9.10;85.80
5419;DHT22;2732;52.092;11.556;2023-05-09T03:01:03;9.00;86.20
5419;DHT22;2732;52.092;11.556;2023-05-09T03:06:04;9.00;86.90
5419;DHT22;2732;52.092;11.556;2023-05-09T03:11:05;8.90;87.50
5419;DHT22;2732;52.092;11.556;2023-05-09T03:16:06;8.90;87.90
5419;DHT22;2732;52.092;11.556;2023-05-09T03:21:06;8.80;88.70
5419;DHT22;2732;52.092;11.556;2023-05-09T03:26:07;8.80;89.30
5419;DHT22;2732;52.092;11.556;2023-05-09T03:31:08;8.80;89.30
5419;DHT22;2732;52.092;11.556;2023-05-09T03:36:08;8.70;89.90
5419;DHT22;2732;52.092;11.556;2023-05-09T03:41:11;8.70;90.20
5419;DHT22;2732;52.092;11.556;2023-05-09T03:46:12;8.70;90.50
5419;DHT22;2732;52.092;11.556;2023-05-09T03:51:12;8.70;90.40
5419;DHT22;2732;52.092;11.556;2023-05-09T03:56:13;8.70;90.60
5419;DHT22;2732;52.092;11.556;2023-05-09T04:01:14;8.60;91.20
5419;DHT22;2732;52.092;11.556;2023-05-09T04:06:15;8.60;91.10
5419;DHT22;2732;52.092;11.556;2023-05-09T04:11:15;8.60;91.50
5419;DHT22;2732;52.092;11.556;2023-05-09T04:16:17;8.60;91.80
5419;DHT22;2732;52.092;11.556;2023-05-09T04:21:18;8.60;91.70
5419;DHT22;2732;52.092;11.556;2023-05-09T04:26:19;8.70;92.20
5419;DHT22;2732;52.092;11.556;2023-05-09T04:31:21;8.60;92.50
5419;DHT22;2732;52.092;11.556;2023-05-09T04:36:22;8.60;92.60
5419;DHT22;2732;52.092;11.556;2023-05-09T04:41:23;8.70;92.90
5419;DHT22;2732;52.092;11.556;2023-05-09T04:46:24;8.70;93.00
5419;DHT22;2732;52.092;11.556;2023-05-09T04:51:25;8.80;93.10
5419;DHT22;2732;52.092;11.556;2023-05-09T04:56:25;8.80;93.10
5419;DHT22;2732;52.092;11.556;2023-05-09T05:01:26;8.80;93.40
5419;DHT22;2732;52.092;11.556;2023-05-09T05:06:27;8.80;93.40
5419;DHT22;2732;52.092;11.556;2023-05-09T05:11:27;8.80;93.80
5419;DHT22;2732;52.092;11.556;2023-05-09T05:16:28;8.90;94.00
5419;DHT22;2732;52.092;11.556;2023-05-09T05:21:28;8.90;94.20
5419;DHT22;2732;52.092;11.556;2023-05-09T05:26:29;9.00;94.10
5419;DHT22;2732;52.092;11.556;2023-05-09T05:31:29;9.00;94.50
5419;DHT22;2732;52.092;11.556;2023-05-09T05:36:30;9.10;94.50
5419;DHT22;2732;52.092;11.556;2023-05-09T05:41:31;9.10;94.60
5419;DHT22;2732;52.092;11.556;2023-05-09T05:46:32;9.20;94.60
5419;DHT22;2732;52.092;11.556;2023-05-09T05:51:32;9.30;95.00
5419;DHT22;2732;52.092;11.556;2023-05-09T05:56:33;9.30;94.90
5419;DHT22;2732;52.092;11.556;2023-05-09T06:01:33;9.40;95.00
5419;DHT22;2732;52.092;11.556;2023-05-09T06:06:34;9.50;95.00
5419;DHT22;2732;52.092;11.556;2023-05-09T06:11:35;9.50;95.00
5419;DHT22;2732;52.092;11.556;2023-05-09T06:16:36;9.60;95.00
5419;DHT22;2732;52.092;11.556;2023-05-09T06:21:38;9.60;95.00
5419;DHT22;2732;52.092;11.556;2023-05-09T06:26:39;9.70;95.20
5419;DHT22;2732;52.092;11.556;2023-05-09T06:31:40;9.80;95.50
5419;DHT22;2732;52.092;11.556;2023-05-09T06:36:41;9.90;95.40
5419;DHT22;2732;52.092;11.556;2023-05-09T06:41:41;9.90;95.50
5419;DHT22;2732;52.092;11.556;2023-05-09T06:46:42;10.00;95.00
5419;DHT22;2732;52.092;11.556;2023-05-09T06:51:42;10.10;95.30
5419;DHT22;2732;52.092;11.556;2023-05-09T06:56:43;10.20;95.10
5419;DHT22;2732;52.092;11.556;2023-05-09T07:01:44;10.30;95.20
5419;DHT22;2732;52.092;11.556;2023-05-09T07:06:44;10.40;94.70
5419;DHT22;2732;52.092;11.556;2023-05-09T07:11:45;10.50;94.90
5419;DHT22;2732;52.092;11.556;2023-05-09T07:16:46;10.60;94.70
5419;DHT22;2732;52.092;11.556;2023-05-09T07:21:46;10.80;95.30
5419;DHT22;2732;52.092;11.556;2023-05-09T07:26:47;10.90;94.70
5419;DHT22;2732;52.092;11.556;2023-05-09T07:31:48;11.10;94.80
5419;DHT22;2732;52.092;11.556;2023-05-09T07:36:48;11.30;94.60
5419;DHT22;2732;52.092;11.556;2023-05-09T07:41:49;11.60;94.30
5419;DHT22;2732;52.092;11.556;2023-05-09T07:46:49;11.90;94.10
5419;DHT22;2732;52.092;11.556;2023-05-09T07:51:50;12.30;93.60
5419;DHT22;2732;52.092;11.556;2023-05-09T07:56:51;13.00;92.90
5419;DHT22;2732;52.092;11.556;2023-05-09T08:01:52;14.00;92.00
5419;DHT22;2732;52.092;11.556;2023-05-09T08:06:52;14.90;91.40
5419;DHT22;2732;52.092;11.556;2023-05-09T08:11:53;15.60;90.30
5419;DHT22;2732;52.092;11.556;2023-05-09T08:16:54;16.30;89.20
5419;DHT22;2732;52.092;11.556;2023-05-09T08:21:54;16.90;87.50
5419;DHT22;2732;52.092;11.556;2023-05-09T08:26:55;17.40;85.40
5419;DHT22;2732;52.092;11.556;2023-05-09T08:31:55;18.00;83.30
5419;DHT22;2732;52.092;11.556;2023-05-09T08:36:56;18.60;81.70
5419;DHT22;2732;52.092;11.556;2023-05-09T08:42:00;18.90;80.40
5419;DHT22;2732;52.092;11.556;2023-05-09T08:47:02;19.30;79.60
5419;DHT22;2732;52.092;11.556;2023-05-09T08:52:03;19.60;78.90
5419;DHT22;2732;52.092;11.556;2023-05-09T08:57:04;19.90;77.80
5419;DHT22;2732;52.092;11.556;2023-05-09T09:02:05;20.20;76.40
5419;DHT22;2732;52.092;11.556;2023-05-09T09:07:07;20.60;75.40
5419;DHT22;2732;52.092;11.556;2023-05-09T09:12:08;21.00;74.40
5419;DHT22;2732;52.092;11.556;2023-05-09T09:17:11;21.40;73.10
5419;DHT22;2732;52.092;11.556;2023-05-09T09:22:19;21.70;72.40
5419;DHT22;2732;52.092;11.556;2023-05-09T09:27:20;22.10;71.00
5419;DHT22;2732;52.092;11.556;2023-05-09T09:32:31;22.40;69.50
5419;DHT22;2732;52.092;11.556;2023-05-09T09:37:34;22.90;67.40
5419;DHT22;2732;52.092;11.556;2023-05-09T09:42:44;23.10;65.60
5419;DHT22;2732;52.092;11.556;2023-05-09T09:47:48;23.50;64.20
5419;DHT22;2732;52.092;11.556;2023-05-09T09:52:54;23.80;63.10
5419;DHT22;2732;52.092;11.556;2023-05-09T09:57:55;24.00;61.70
5419;DHT22;2732;52.092;11.556;2023-05-09T10:02:57;24.30;59.50
5419;DHT22;2732;52.092;11.556;2023-05-09T10:08:02;24.60;58.90
5419;DHT22;2732;52.092;11.556;2023-05-09T10:13:06;24.90;58.60
5419;DHT22;2732;52.092;11.556;2023-05-09T10:18:09;25.20;56.50
5419;DHT22;2732;52.092;11.556;2023-05-09T10:23:12;25.40;56.80
5419;DHT22;2732;52.092;11.556;2023-05-09T10:28:17;25.50;55.80
5419;DHT22;2732;52.092;11.556;2023-05-09T10:33:25;25.70;55.20
5419;DHT22;2732;52.092;11.556;2023-05-09T10:38:31;25.90;55.10
5419;DHT22;2732;52.092;11.556;2023-05-09T10:43:32;26.10;54.60
5419;DHT22;2732;52.092;11.556;2023-05-09T10:48:34;26.30;53.10
5419;DHT22;2732;52.092;11.556;2023-05-09T10:53:47;26.40;52.80
5419;DHT22;2732;52.092;11.556;2023-05-09T10:58:49;26.70;52.50
5419;DHT22;2732;52.092;11.556;2023-05-09T11:03:54;27.00;52.40
5419;DHT22;2732;52.092;11.556;2023-05-09T11:08:56;27.20;52.10
5419;DHT22;2732;52.092;11.556;2023-05-09T11:13:58;27.30;50.90
5419;DHT22;2732;52.092;11.556;2023-05-09T11:19:00;27.50;50.50
5419;DHT22;2732;52.092;11.556;2023-05-09T11:24:15;27.70;50.20
5419;DHT22;2732;52.092;11.556;2023-05-09T11:29:16;27.90;49.50
5419;DHT22;2732;52.092;11.556;2023-05-09T11:34:19;28.00;49.50
5419;DHT22;2732;52.092;11.556;2023-05-09T11:39:24;28.20;49.50
5419;DHT22;2732;52.092;11.556;2023-05-09T11:44:26;28.20;47.50
5419;DHT22;2732;52.092;11.556;2023-05-09T11:49:28;28.20;47.20
5419;DHT22;2732;52.092;11.556;2023-05-09T11:54:29;28.20;47.00
5419;DHT22;2732;52.092;11.556;2023-05-09T11:59:29;28.30;47.20
5419;DHT22;2732;52.092;11.556;2023-05-09T12:04:31;28.50;47.20
5419;DHT22;2732;52.092;11.556;2023-05-09T12:09:34;28.50;47.10
5419;DHT22;2732;52.092;11.556;2023-05-09T12:14:40;28.50;47.10
5419;DHT22;2732;52.092;11.556;2023-05-09T12:19:43;28.70;46.40
5419;DHT22;2732;52.092;11.556;2023-05-09T12:24:43;28.70;46.40
5419;DHT22;2732;52.092;11.556;2023-05-09T12:29:44;28.80;46.10
5419;DHT22;2732;52.092;11.556;2023-05-09T12:34:47;28.70;46.00
5419;DHT22;2732;52.092;11.556;2023-05-09T12:40:05;28.80;46.50
5419;DHT22;2732;52.092;11.556;2023-05-09T12:45:11;28.90;46.30
5419;DHT22;2732;52.092;11.556;2023-05-09T12:50:12;29.00;46.20
5419;DHT22;2732;52.092;11.556;2023-05-09T12:55:13;28.90;45.70
5419;DHT22;2732;52.092;11.556;2023-05-09T13:00:16;29.00;45.60
5419;DHT22;2732;52.092;11.556;2023-05-09T13:05:20;29.10;45.20
5419;DHT22;2732;52.092;11.556;2023-05-09T13:10:24;29.20;45.00
5419;DHT22;2732;52.092;11.556;2023-05-09T13:15:26;29.20;45.50
5419;DHT22;2732;52.092;11.556;2023-05-09T13:20:28;29.40;44.80
5419;DHT22;2732;52.092;11.556;2023-05-09T13:25:29;29.40;44.60
5419;DHT22;2732;52.092;11.556;2023-05-09T13:30:30;29.50;44.20
5419;DHT22;2732;52.092;11.556;2023-05-09T13:35:31;29.50;42.60
5419;DHT22;2732;52.092;11.556;2023-05-09T13:40:31;29.40;42.10
5419;DHT22;2732;52.092;11.556;2023-05-09T13:45:32;29.30;41.90
5419;DHT22;2732;52.092;11.556;2023-05-09T13:50:33;29.30;42.50
5419;DHT22;2732;52.092;11.556;2023-05-09T13:55:33;29.30;41.90
5419;DHT22;2732;52.092;11.556;2023-05-09T14:00:34;29.20;42.00
5419;DHT22;2732;52.092;11.556;2023-05-09T14:05:36;29.10;42.50
5419;DHT22;2732;52.092;11.556;2023-05-09T14:10:37;29.00;42.00
5419;DHT22;2732;52.092;11.556;2023-05-09T14:15:38;29.10;41.30
5419;DHT22;2732;52.092;11.556;2023-05-09T14:20:39;29.00;41.50
5419;DHT22;2732;52.092;11.556;2023-05-09T14:25:41;28.80;40.20
5419;DHT22;2732;52.092;11.556;2023-05-09T14:30:42;28.60;39.10
5419;DHT22;2732;52.092;11.556;2023-05-09T14:35:42;28.50;39.80
5419;DHT22;2732;52.092;11.556;2023-05-09T14:40:43;28.40;39.20
5419;DHT22;2732;52.092;11.556;2023-05-09T14:45:43;28.30;40.00
5419;DHT22;2732;52.092;11.556;2023-05-09T14:50:44;28.20;40.60
5419;DHT22;2732;52.092;11.556;2023-05-09T14:55:45;28.20;39.70
5419;DHT22;2732;52.092;11.556;2023-05-09T15:00:46;28.00;38.90
5419;DHT22;2732;52.092;11.556;2023-05-09T15:05:47;27.80;39.30
5419;DHT22;2732;52.092;11.556;2023-05-09T15:10:47;27.70;40.00
5419;DHT22;2732;52.092;11.556;2023-05-09T15:15:50;27.80;39.30
5419;DHT22;2732;52.092;11.556;2023-05-09T15:20:50;27.80;39.10
5419;DHT22;2732;52.092;11.556;2023-05-09T15:25:51;27.90;40.10
5419;DHT22;2732;52.092;11.556;2023-05-09T15:30:52;27.80;39.80
5419;DHT22;2732;52.092;11.556;2023-05-09T15:35:58;27.70;40.50
5419;DHT22;2732;52.092;11.556;2023-05-09T15:41:02;27.50;41.40
5419;DHT22;2732;52.092;11.556;2023-05-09T15:46:03;27.30;40.30
5419;DHT22;2732;52.092;11.556;2023-05-09T15:51:03;26.90;40.20
5419;DHT22;2732;52.092;11.556;2023-05-09T15:56:06;26.70;41.30
5419;DHT22;2732;52.092;11.556;2023-05-09T16:01:07;26.40;41.20
5419;DHT22;2732;52.092;11.556;2023-05-09T16:06:10;26.00;40.90
5419;DHT22;2732;52.092;11.556;2023-05-09T16:11:12;25.70;41.00
5419;DHT22;2732;52.092;11.556;2023-05-09T16:16:16;25.50;41.50
5419;DHT22;2732;52.092;11.556;2023-05-09T16:21:18;25.30;41.70
5419;DHT22;2732;52.092;11.556;2023-05-09T16:26:19;25.10;41.60
5419;DHT22;2732;52.092;11.556;2023-05-09T16:31:21;24.90;41.90
5419;DHT22;2732;52.092;11.556;2023-05-09T16:36:25;24.80;42.30
5419;DHT22;2732;52.092;11.556;2023-05-09T16:41:26;24.70;43.20
5419;DHT22;2732;52.092;11.556;2023-05-09T16:46:26;24.50;43.70
5419;DHT22;2732;52.092;11.556;2023-05-09T16:51:27;24.40;44.40
5419;DHT22;2732;52.092;11.556;2023-05-09T16:56:27;24.20;44.50
5419;DHT22;2732;52.092;11.556;2023-05-09T17:01:28;24.10;44.40
5419;DHT22;2732;52.092;11.556;2023-05-09T17:06:29;24.00;44.00
5419;DHT22;2732;52.092;11.556;2023-05-09T17:11:30;23.90;43.90
5419;DHT22;2732;52.092;11.556;2023-05-09T17:16:30;23.70;44.20
5419;DHT22;2732;52.092;11.556;2023-05-09T17:21:32;23.60;44.10
5419;DHT22;2732;52.092;11.556;2023-05-09T17:27:00;23.60;44.20
5419;DHT22;2732;52.092;11.556;2023-05-09T17:32:06;23.50;44.10
5419;DHT22;2732;52.092;11.556;2023-05-09T17:37:27;23.30;44.20
5419;DHT22;2732;52.092;11.556;2023-05-09T17:42:28;23.20;44.50
5419;DHT22;2732;52.092;11.556;2023-05-09T17:47:28;23.00;44.80
5419;DHT22;2732;52.092;11.556;2023-05-09T17:52:29;22.80;44.80
5419;DHT22;2732;52.092;11.556;2023-05-09T17:57:30;22.50;45.60
5419;DHT22;2732;52.092;11.556;2023-05-09T18:02:30;22.20;45.50
5419;DHT22;2732;52.092;11.556;2023-05-09T18:07:31;22.00;46.10
5419;DHT22;2732;52.092;11.556;2023-05-09T18:12:33;21.70;46.70
5419;DHT22;2732;52.092;11.556;2023-05-09T18:17:35;21.40;47.10
5419;DHT22;2732;52.092;11.556;2023-05-09T18:22:36;21.10;47.10
5419;DHT22;2732;52.092;11.556;2023-05-09T18:27:36;20.80;46.90
5419;DHT22;2732;52.092;11.556;2023-05-09T18:32:37;20.50;47.30
5419;DHT22;2732;52.092;11.556;2023-05-09T18:37:38;20.20;47.50
5419;DHT22;2732;52.092;11.556;2023-05-09T18:42:39;20.00;47.00
5419;DHT22;2732;52.092;11.556;2023-05-09T18:47:40;19.70;47.40
5419;DHT22;2732;52.092;11.556;2023-05-09T18:52:41;19.40;48.00
5419;DHT22;2732;52.092;11.556;2023-05-09T18:57:43;19.10;48.10
5419;DHT22;2732;52.092;11.556;2023-05-09T19:02:44;18.90;48.20
5419;DHT22;2732;52.092;11.556;2023-05-09T19:07:45;18.70;49.00
5419;DHT22;2732;52.092;11.556;2023-05-09T19:12:45;18.40;49.20
5419;DHT22;2732;52.092;11.556;2023-05-09T19:17:46;18.20;49.40
5419;DHT22;2732;52.092;11.556;2023-05-09T19:22:47;18.00;49.80
5419;DHT22;2732;52.092;11.556;2023-05-09T19:27:50;17.80;50.60
5419;DHT22;2732;52.092;11.556;2023-05-09T19:32:52;17.70;50.60
5419;DHT22;2732;52.092;11.556;2023-05-09T19:37:52;17.50;50.80
5419;DHT22;2732;52.092;11.556;2023-05-09T19:42:53;17.40;51.30
5419;DHT22;2732;52.092;11.556;2023-05-09T19:47:53;17.20;51.30
5419;DHT22;2732;52.092;11.556;2023-05-09T19:52:54;17.00;51.50
5419;DHT22;2732;52.092;11.556;2023-05-09T19:57:55;16.90;52.00
5419;DHT22;2732;52.092;11.556;2023-05-09T20:02:55;16.70;52.00
5419;DHT22;2732;52.092;11.556;2023-05-09T20:07:56;16.60;52.40
5419;DHT22;2732;52.092;11.556;2023-05-09T20:12:57;16.40;52.70
5419;DHT22;2732;52.092;11.556;2023-05-09T20:17:58;16.30;53.00
5419;DHT22;2732;52.092;11.556;2023-05-09T20:23:02;16.20;53.40
5419;DHT22;2732;52.092;11.556;2023-05-09T20:28:03;16.10;53.80
5419;DHT22;2732;52.092;11.556;2023-05-09T20:33:03;15.90;54.10
5419;DHT22;2732;52.092;11.556;2023-05-09T20:38:04;15.80;54.80
5419;DHT22;2732;52.092;11.556;2023-05-09T20:43:05;15.70;55.00
5419;DHT22;2732;52.092;11.556;2023-05-09T20:48:06;15.60;55.40
5419;DHT22;2732;52.092;11.556;2023-05-09T20:53:07;15.50;55.70
5419;DHT22;2732;52.092;11.556;2023-05-09T20:58:07;15.40;56.00
5419;DHT22;2732;52.092;11.556;2023-05-09T21:03:08;15.40;56.20
5419;DHT22;2732;52.092;11.556;2023-05-09T21:08:09;15.30;56.90
5419;DHT22;2732;52.092;11.556;2023-05-09T21:13:10;15.20;56.90
5419;DHT22;2732;52.092;11.556;2023-05-09T21:18:10;15.20;57.20
5419;DHT22;2732;52.092;11.556;2023-05-09T21:23:11;15.10;57.60
5419;DHT22;2732;52.092;11.556;2023-05-09T21:28:11;15.00;58.00
5419;DHT22;2732;52.092;11.556;2023-05-09T21:33:14;14.90;58.20
5419;DHT22;2732;52.092;11.556;2023-05-09T21:38:14;14.80;58.20
5419;DHT22;2732;52.092;11.556;2023-05-09T21:43:15;14.80;58.60
5419;DHT22;2732;52.092;11.556;2023-05-09T21:48:18;14.70;59.00
5419;DHT22;2732;52.092;11.556;2023-05-09T21:53:19;14.70;59.20
5419;DHT22;2732;52.092;11.556;2023-05-09T21:58:20;14.60;59.50
5419;DHT22;2732;52.092;11.556;2023-05-09T22:03:20;14.50;59.80
5419;DHT22;2732;52.092;11.556;2023-05-09T22:08:22;14.50;60.20
5419;DHT22;2732;52.092;11.556;2023-05-09T22:13:22;14.40;60.20
5419;DHT22;2732;52.092;11.556;2023-05-09T22:18:23;14.30;60.80
5419;DHT22;2732;52.092;11.556;2023-05-09T22:23:24;14.30;61.20
5419;DHT22;2732;52.092;11.556;2023-05-09T22:28:24;14.20;61.30
5419;DHT22;2732;52.092;11.556;2023-05-09T22:33:25;14.10;61.80
5419;DHT22;2732;52.092;11.556;2023-05-09T22:38:25;14.10;62.10
5419;DHT22;2732;52.092;11.556;2023-05-09T22:43:26;14.00;62.30
5419;DHT22;2732;52.092;11.556;2023-05-09T22:48:26;13.90;62.20
5419;DHT22;2732;52.092;11.556;2023-05-09T22:53:27;13.90;62.60
5419;DHT22;2732;52.092;11.556;2023-05-09T22:58:28;13.80;62.70
5419;DHT22;2732;52.092;11.556;2023-05-09T23:03:28;13.70;63.00
5419;DHT22;2732;52.092;11.556;2023-05-09T23:08:29;13.70;63.20
5419;DHT22;2732;52.092;11.556;2023-05-09T23:13:30;13.60;63.20
5419;DHT22;2732;52.092;11.556;2023-05-09T23:18:32;13.50;63.40
5419;DHT22;2732;52.092;11.556;2023-05-09T23:23:32;13.50;63.70
5419;DHT22;2732;52.092;11.556;2023-05-09T23:28:33;13.50;63.90
5419;DHT22;2732;52.092;11.556;2023-05-09T23:33:33;13.40;63.90
5419;DHT22;2732;52.092;11.556;2023-05-09T23:38:34;13.40;64.20
5419;DHT22;2732;52.092;11.556;2023-05-09T23:43:36;13.30;64.50
5419;DHT22;2732;52.092;11.556;2023-05-09T23:48:36;13.20;64.90
5419;DHT22;2732;52.092;11.556;2023-05-09T23:53:38;13.20;65.30
5419;DHT22;2732;52.092;11.556;2023-05-09T23:58:39;13.10;66.00
